Weather reports worldwide

Advertisment
Sutton bonington, United Kingdom (99025): temperature & dewpoint: 25.03.2020 03:00:00 - 31.03.2020 03:00:00 (BST)Sutton bonington, United Kingdom (99025): temperature -20cm & temperature -100cm: 25.03.2020 03:00:00 - 31.03.2020 03:00:00 (BST)Sutton bonington, United Kingdom (99025): wind speed & gusts: 25.03.2020 03:00:00 - 31.03.2020 03:00:00 (BST)Sutton bonington, United Kingdom (99025): wind direction: 25.03.2020 03:00:00 - 31.03.2020 03:00:00 (BST)Sutton bonington, United Kingdom (99025): precipitation: 25.03.2020 03:00:00 - 31.03.2020 03:00:00 (BST)
Date & Time tt [°C] td [°C] tt -20cm [°C] tt -100cm [°C] ff [km/h] ff [kn] fx [km/h] fx [kn] dd rr [mm]
31.03.2020 03:00:00 4,1 2,7 - - 8 4 - - N 0,0
31.03.2020 02:00:00 4,6 2,9 - - 11 6 - - NNE 0,0
31.03.2020 01:00:00 5,1 2,7 - - 15 8 - - NE 0,0
31.03.2020 00:00:00 5,4 3,2 - - 18 10 - - NNE 0,0
30.03.2020 23:00:00 5,8 3,5 - - 21 11 - - NNE 0,2
30.03.2020 22:00:00 5,8 4,1 - - 22 12 - - NE 0,4
30.03.2020 21:00:00 6,6 3,9 - - 13 7 - - N 0,2
30.03.2020 20:00:00 7,7 2,8 - - 15 8 - - NNE 0,0
30.03.2020 19:00:00 7,7 3,1 - - 15 8 - - NNE 0,0
30.03.2020 18:00:00 7,6 3,1 - - 11 6 - - NNE 0,2
30.03.2020 17:00:00 7,8 3,0 - - 15 8 - - NNE 0,0
30.03.2020 16:00:00 8,3 1,9 - - 22 12 - - N 0,0
30.03.2020 15:00:00 8,2 4,7 - - 13 7 - - NNE 0,6
30.03.2020 14:00:00 7,5 3,6 - - 15 8 - - NE 0,0
30.03.2020 13:00:00 7,8 3,4 - - 21 11 - - N 0,0
30.03.2020 12:00:00 7,7 3,8 - - 24 13 - - N 0,0
30.03.2020 11:00:00 7,0 2,2 - - 22 12 - - N 0,0
30.03.2020 10:00:00 6,5 2,3 6,2 7,4 15 8 - - N 0,0
30.03.2020 09:00:00 4,4 1,6 - - 8 4 - - NW 0,2
30.03.2020 08:00:00 2,7 -0,5 - - 9 5 - - NW 0,0
30.03.2020 07:00:00 1,7 -1,2 - - 5 3 - - WNW 0,0
30.03.2020 06:00:00 1,1 -2,1 - - 8 4 - - NW 0,0
30.03.2020 05:00:00 0,3 -3,1 - - 4 2 - - W 0,0
30.03.2020 04:00:00 1,5 -2,2 - - 9 5 - - W 0,0
30.03.2020 03:00:00 2,4 -1,7 - - 9 5 - - NW 0,0
30.03.2020 02:00:00 2,4 -1,8 - - 9 5 - - NW 0,0
30.03.2020 01:00:00 2,1 -1,4 - - 9 5 - - NNW 0,0
30.03.2020 00:00:00 2,0 -2,2 - - 9 5 - - NNW 0,0
29.03.2020 23:00:00 2,9 -2,2 - - 13 7 - - N 0,0
29.03.2020 22:00:00 3,5 -1,5 - - 11 6 - - NNE 0,0
29.03.2020 21:00:00 4,0 -1,1 - - 18 10 - - N 0,0
29.03.2020 20:00:00 4,0 -0,5 - - 18 10 - - NNE 0,0
29.03.2020 19:00:00 4,9 -2,8 - - 22 12 48 26 NE 0,0
29.03.2020 18:00:00 5,7 -3,5 - - 24 13 - - NE 0,0
29.03.2020 17:00:00 5,8 -3,2 - - 28 15 46 25 NNE 0,0
29.03.2020 16:00:00 6,2 -2,7 - - 28 15 52 28 NNE 0,0
29.03.2020 15:00:00 6,8 -4,1 - - 29 16 48 26 NNE 0,0
29.03.2020 14:00:00 6,8 -4,3 - - 35 19 54 29 NE 0,0
29.03.2020 13:00:00 6,3 -3,9 - - 29 16 55 30 NNE 0,0
29.03.2020 12:00:00 5,5 -1,7 - - 28 15 50 27 NNE 0,0
29.03.2020 11:00:00 3,9 -1,1 - - 31 17 50 27 NNE 0,0
29.03.2020 10:00:00 4,9 -1,9 6,7 7,5 24 13 - - NNE 0,0
29.03.2020 09:00:00 4,1 -1,9 - - 21 11 - - NNE 0,0
29.03.2020 08:00:00 3,3 -1,7 - - 24 13 50 27 NNE 0,0
29.03.2020 07:00:00 3,1 -2,4 - - 16 9 - - N 0,0
29.03.2020 06:00:00 3,1 -2,4 - - 24 13 - - N 0,0
29.03.2020 05:00:00 3,4 -2,1 - - 31 17 46 25 NNE 0,0
29.03.2020 04:00:00 3,6 -2,9 - - 26 14 - - NNE 0,0
29.03.2020 03:00:00 3,8 -2,5 - - 18 10 - - N 0,0
29.03.2020 02:00:00 3,5 -1,2 - - 24 13 - - NNE 0,0
29.03.2020 01:00:00 3,6 0,0 - - 16 9 46 25 NNE 0,0
29.03.2020 00:00:00 3,7 -0,3 - - 22 12 - - N 0,0
28.03.2020 23:00:00 4,1 -0,7 - - 24 13 - - NNE 0,0
28.03.2020 22:00:00 4,5 -0,3 - - 26 14 - - NNE 0,0
28.03.2020 21:00:00 4,9 0,9 - - 22 12 57 31 N 0,0
28.03.2020 20:00:00 5,9 -0,2 - - 24 13 - - NNE 0,0
28.03.2020 19:00:00 6,4 0,5 - - 24 13 48 26 NNE 0,0
28.03.2020 18:00:00 7,3 0,4 - - 29 16 - - NE 0,0
28.03.2020 17:00:00 8,5 1,8 - - 34 18 52 28 NE 0,0
28.03.2020 16:00:00 9,0 1,6 - - 31 17 46 25 NE 0,0
28.03.2020 15:00:00 9,3 1,8 - - 29 16 48 26 NE 0,0
28.03.2020 14:00:00 9,1 2,5 - - 35 19 48 26 NE 0,0
28.03.2020 13:00:00 9,0 2,5 - - 34 18 50 27 NE 0,0
28.03.2020 12:00:00 8,0 2,5 - - 31 17 50 27 NE 0,0
28.03.2020 11:00:00 8,6 2,5 - - 35 19 48 26 NE 0,0
28.03.2020 10:00:00 7,4 2,9 6,7 7,5 31 17 48 26 NNE 0,0
28.03.2020 09:00:00 7,1 3,5 - - 29 16 - - NE 0,0
28.03.2020 08:00:00 6,4 3,7 - - 24 13 - - NNE 0,0
28.03.2020 07:00:00 5,9 4,1 - - 18 10 - - NNE 0,0
28.03.2020 06:00:00 5,1 3,3 - - 22 12 - - NE 0,0
28.03.2020 05:00:00 4,6 3,1 - - 18 10 - - NNE 0,0
28.03.2020 04:00:00 4,4 2,7 - - 21 11 - - NNE 0,0
28.03.2020 03:00:00 4,2 2,2 - - 18 10 - - NNE 0,0
28.03.2020 02:00:00 4,1 1,5 - - 15 8 - - NNE 0,0
28.03.2020 01:00:00 4,1 1,2 - - 21 11 - - NNE 0,0
28.03.2020 00:00:00 3,9 0,6 - - 13 7 - - N 0,0
27.03.2020 23:00:00 4,8 0,7 - - 15 8 - - NNE 0,0
27.03.2020 22:00:00 5,4 1,1 - - 22 12 - - NE 0,0
27.03.2020 21:00:00 5,8 0,9 - - 22 12 - - NE 0,0
27.03.2020 20:00:00 7,4 -1,3 - - 24 13 - - NE 0,0
27.03.2020 19:00:00 8,8 -2,0 - - 22 12 - - NE 0,0
27.03.2020 18:00:00 10,0 -1,3 - - 22 12 - - NE 0,0
27.03.2020 17:00:00 11,1 -1,0 - - 26 14 - - ENE 0,0
27.03.2020 16:00:00 11,5 -0,6 - - 24 13 - - NE 0,0
27.03.2020 15:00:00 11,2 0,5 - - 22 12 - - NE 0,0
27.03.2020 14:00:00 10,6 2,1 - - 21 11 - - NE 0,0
27.03.2020 13:00:00 9,7 2,2 - - 18 10 - - NE 0,0
27.03.2020 12:00:00 8,5 1,5 - - 21 11 - - NE 0,0
27.03.2020 11:00:00 6,9 2,9 - - 18 10 - - NE 0,0
27.03.2020 10:00:00 5,3 2,7 6,7 7,5 15 8 - - NNE 0,0
27.03.2020 09:00:00 2,6 1,8 - - 11 6 - - N 0,0
27.03.2020 08:00:00 1,1 0,7 - - 11 6 - - N 0,0
27.03.2020 07:00:00 1,0 0,4 - - 8 4 - - N 0,0
27.03.2020 06:00:00 1,3 0,5 - - 13 7 - - N 0,0
27.03.2020 05:00:00 1,5 0,5 - - 9 5 - - N 0,0
27.03.2020 04:00:00 1,8 0,7 - - 9 5 - - NNE 0,0
27.03.2020 03:00:00 1,9 0,6 - - 9 5 - - N 0,0
27.03.2020 02:00:00 2,5 0,8 - - 5 3 - - N 0,0
27.03.2020 01:00:00 2,5 0,7 - - 5 3 - - NNE 0,0
27.03.2020 00:00:00 3,4 1,0 - - 11 6 - - ENE 0,0
26.03.2020 23:00:00 3,4 -0,1 - - 9 5 - - ENE 0,0
26.03.2020 22:00:00 4,8 -0,8 - - 8 4 - - NE 0,0
26.03.2020 21:00:00 6,7 -1,1 - - 15 8 - - ENE 0,0
26.03.2020 20:00:00 8,6 -0,6 - - 11 6 - - ENE 0,0
26.03.2020 19:00:00 10,9 -1,0 - - 16 9 - - ENE 0,0
26.03.2020 18:00:00 12,5 -2,8 - - 16 9 - - NE 0,0
26.03.2020 17:00:00 13,1 -3,0 - - 16 9 - - ENE 0,0
26.03.2020 16:00:00 13,5 -2,5 - - 18 10 - - E 0,0
26.03.2020 15:00:00 13,0 -1,2 - - 21 11 - - ENE 0,0
26.03.2020 14:00:00 12,1 0,1 - - 21 11 - - ENE 0,0
26.03.2020 13:00:00 10,9 0,5 - - 16 9 - - ENE 0,0
26.03.2020 12:00:00 9,0 -0,8 - - 16 9 - - ENE 0,0
26.03.2020 11:00:00 7,3 2,2 - - 11 6 - - ENE 0,0
26.03.2020 10:00:00 4,7 0,0 6,9 7,4 8 4 - - NE 0,0
26.03.2020 09:00:00 1,6 -1,2 - - 0 0 - - N 0,0
26.03.2020 08:00:00 -1,1 -1,9 - - 2 1 - - WNW 0,0
26.03.2020 07:00:00 -2,2 -3,2 - - 0 0 - - N 0,0
26.03.2020 06:00:00 -2,2 -3,4 - - 2 1 - - NE 0,0
26.03.2020 05:00:00 -1,4 -2,8 - - 0 0 - - N 0,0
26.03.2020 04:00:00 -0,7 -2,4 - - 4 2 - - E 0,0
26.03.2020 03:00:00 1,3 -2,1 - - 0 0 - - N 0,0
26.03.2020 02:00:00 2,1 -1,3 - - 4 2 - - ENE 0,0
26.03.2020 01:00:00 3,5 -1,1 - - 5 3 - - SE 0,0
26.03.2020 00:00:00 5,1 -0,7 - - 4 2 - - SE 0,0
25.03.2020 23:00:00 5,4 -1,3 - - 2 1 - - ENE 0,0
25.03.2020 22:00:00 7,7 -1,1 - - 2 1 - - SSE 0,0
25.03.2020 21:00:00 8,3 -0,1 - - 5 3 - - E 0,0
25.03.2020 20:00:00 10,7 -1,3 - - 4 2 - - E 0,0
25.03.2020 19:00:00 12,8 -0,8 - - 9 5 - - E 0,0
25.03.2020 18:00:00 14,3 -1,4 - - 8 4 - - ESE 0,0
25.03.2020 17:00:00 14,7 -1,2 - - 8 4 - - E 0,0
25.03.2020 16:00:00 15,1 -1,3 - - 5 3 - - ESE 0,0
25.03.2020 15:00:00 14,5 -4,2 - - 11 6 - - SSE 0,0
25.03.2020 14:00:00 13,8 -0,2 - - 11 6 - - SSE 0,0
25.03.2020 13:00:00 12,5 -0,5 - - 13 7 - - SE 0,0
25.03.2020 12:00:00 12,3 -0,8 - - 4 2 - - SSW 0,0
25.03.2020 11:00:00 10,1 -0,4 - - 8 4 - - S 0,0
25.03.2020 10:00:00 7,6 -1,1 7,0 7,2 11 6 - - SSE 0,0
25.03.2020 09:00:00 5,2 -1,1 - - 9 5 - - SSE 0,0
25.03.2020 08:00:00 3,0 -1,2 - - 4 2 - - ESE 0,0
25.03.2020 07:00:00 2,0 -2,0 - - 0 0 - - N 0,0
25.03.2020 06:00:00 2,5 -1,9 - - 2 1 - - E 0,0
25.03.2020 05:00:00 4,3 -1,5 - - 8 4 - - SE 0,0
25.03.2020 04:00:00 4,3 -1,7 - - 4 2 - - SE 0,0
25.03.2020 03:00:00 - - - - - - - - - -

tt = temperature
td = dewpoint
tt -20cm = temperature -20cm
tt -100cm = temperature -100cm
ff = wind speed
fx = gusts
dd = wind direction
rr = precipitation

Next stations